Latest Weather Observations for Mareeba

IDQ60801

Issued at 10:32 am EST Tuesday 28 April 2015 (issued every 30 minutes, with the page automatically refreshed every 10 minutes)

About weather observations | Map of weather stations | Latest weather observations for QLD | Other Formats
Station Details ID: 031210 Name: MAREEBA AIRPORT Lat: -17.07 Lon: 145.43 Height: 471.93 m
Data from the previous 72 hours. | See also: Recent months at Mareeba
Date/Time
EST
Temp
°C
App
Temp
°C
Dew
Point
Rel
Hum
%
Delta-T
°C
Wind Press
QNH
hPa
Press
MSL
hPa
Rain
since 9 am
mm
Dir
 
Spd
km/h
Gust
km/h
Spd
kts
Gust
kts
28/10:30am 24.3 21.7 13.2 50 6.6 SSE 19 32 10 17 1019.3 - 0.0
28/10:00am 22.8 19.8 11.8 50 6.3 ESE 19 30 10 16 1019.6 - 0.0
28/09:30am 22.8 20.4 13.8 57 5.3 SE 19 28 10 15 1019.5 - 0.0
28/09:00am 21.0 18.4 13.2 61 4.5 SE 19 26 10 14 1019.4 1016.8 0.0
28/08:30am 19.9 17.3 13.1 65 3.9 SE 19 22 10 12 1019.2 - 0.0
28/08:00am 18.3 15.9 12.7 70 3.2 SE 17 24 9 13 1019.1 - 0.0
28/07:30am 16.8 15.2 12.9 78 2.2 SSE 13 17 7 9 1019.0 - 0.0
28/07:00am 15.0 13.3 12.3 84 1.5 SE 13 17 7 9 1018.8 - 0.0
28/06:30am 14.2 13.1 11.9 86 1.3 SE 9 13 5 7 1018.5 - 0.0
28/06:00am 14.5 13.5 12.4 87 1.2 ESE 9 13 5 7 1018.2 1015.5 0.0
28/05:30am 14.5 14.1 12.4 87 1.2 ESE 6 11 3 6 1017.9 - 0.0
28/05:00am 14.9 14.0 12.6 86 1.3 SE 9 13 5 7 1017.7 - 0.0
28/04:30am 15.1 14.0 13.0 87 1.2 SSE 11 15 6 8 1017.6 - 0.0
28/04:00am 15.2 14.3 12.7 85 1.4 SE 9 13 5 7 1017.4 - 0.0
28/03:30am 16.1 14.9 12.8 81 1.9 ESE 11 20 6 11 1017.4 - 0.0
28/03:00am 16.0 14.7 12.6 80 1.9 ESE 11 15 6 8 1017.3 1014.7 0.0
28/02:30am 15.9 13.4 12.3 79 2.0 SE 17 24 9 13 1017.3 - 0.0
28/02:00am 16.0 13.0 12.0 77 2.2 SSE 19 24 10 13 1017.6 - 0.0
28/01:30am 16.4 13.2 12.0 75 2.5 SSE 20 26 11 14 1017.9 - 0.0
28/01:00am 16.6 13.1 12.2 75 2.5 SSE 22 30 12 16 1018.3 - 0.0
28/12:30am 16.2 12.6 11.8 75 2.4 S 22 30 12 16 1018.6 - 0.0
28/12:00am 16.7 13.4 11.6 72 2.8 SSE 20 26 11 14 1019.0 1016.4 0.0
 
Date/Time
EST
Temp
°C
App
Temp
°C
Dew
Point
Rel
Hum
%
Delta-T
°C
Wind Press
QNH
hPa
Press
MSL
hPa
Rain
since 9 am
mm
Dir
 
Spd
km/h
Gust
km/h
Spd
kts
Gust
kts
27/11:30pm 16.6 13.4 11.3 71 2.9 SSE 19 26 10 14 1019.3 - 0.0
27/11:00pm 16.9 13.8 11.6 71 2.9 SSE 19 22 10 12 1019.5 - 0.0
27/10:30pm 16.8 14.5 11.7 72 2.8 SSE 15 20 8 11 1019.6 - 0.0
27/10:00pm 17.3 14.8 12.2 72 2.9 SSE 17 20 9 11 1019.9 - 0.0
27/09:30pm 17.0 14.4 11.9 72 2.9 S 17 20 9 11 1020.0 - 0.0
27/09:00pm 17.3 14.7 12.0 71 3.0 S 17 20 9 11 1020.0 1017.3 0.0
27/08:30pm 17.3 15.1 12.0 71 3.0 S 15 19 8 10 1019.5 - 0.0
27/08:00pm 17.9 16.4 11.9 68 3.4 SSE 11 15 6 8 1019.1 - 0.0
27/07:30pm 18.7 17.4 11.3 62 4.1 SSE 9 11 5 6 1018.5 - 0.0
27/07:00pm 20.1 17.6 11.1 56 5.0 SSE 15 20 8 11 1018.0 - 0.0
27/06:30pm 21.0 18.0 10.8 52 5.7 SE 17 30 9 16 1017.3 - 0.0
27/06:00pm 22.1 18.6 10.9 49 6.3 SE 20 30 11 16 1016.8 1014.2 0.0
27/05:30pm 23.5 20.3 11.2 46 7.0 SE 19 24 10 13 1016.3 - 0.0
27/05:00pm 24.8 21.4 10.7 41 8.0 SE 19 26 10 14 1015.9 - 0.0
27/04:30pm 25.9 23.6 10.5 38 8.8 SE 13 22 7 12 1015.6 - 0.0
27/04:00pm 26.5 23.2 8.0 31 10.2 SSE 15 20 8 11 1015.2 - 0.0
27/03:30pm 26.9 23.1 7.4 29 10.6 SE 17 22 9 12 1015.1 - 0.0
27/03:00pm 27.1 22.8 7.0 28 10.9 SE 19 26 10 14 1015.1 1012.5 0.0
27/02:30pm 27.4 22.7 7.8 29 10.8 SSE 22 28 12 15 1015.1 - 0.0
27/02:00pm 27.2 23.1 6.0 26 11.3 SSE 17 24 9 13 1015.2 - 0.0
27/01:30pm 27.7 23.4 7.0 27 11.2 S 19 26 10 14 1015.7 - 0.0
27/01:00pm 27.0 22.3 5.9 26 11.2 SSE 20 33 11 18 1016.1 - 0.0
27/12:30pm 27.2 22.3 4.9 24 11.6 SSE 20 28 11 15 1016.4 - 0.0
27/12:00pm 27.1 22.7 6.5 27 11.0 S 19 26 10 14 1016.8 1014.2 0.0
27/11:30am 26.0 21.5 6.1 28 10.5 SE 19 26 10 14 1017.3 - 0.0
27/11:00am 25.7 22.0 7.8 32 9.7 SE 17 28 9 15 1017.8 - 0.0
27/10:30am 24.9 20.5 7.5 33 9.4 SE 20 28 11 15 1018.1 - 0.0
27/10:00am 24.4 19.1 6.6 32 9.4 SSE 24 32 13 17 1018.3 - 0.0
27/09:30am 23.4 18.9 8.7 39 8.0 SE 22 39 12 21 1018.3 - 0.0
27/09:00am 22.0 17.5 8.5 42 7.3 SE 22 32 12 17 1018.1 1015.4 0.0
27/08:30am 20.7 16.7 9.0 47 6.3 SE 20 26 11 14 1018.0 - 0.0
27/08:00am 19.5 16.2 9.4 52 5.5 SE 17 26 9 14 1017.9 - 0.0
27/07:30am 18.0 12.8 8.8 55 4.9 SSE 26 33 14 18 1017.7 - 0.0
27/07:00am 17.3 13.4 9.5 60 4.2 SSE 20 30 11 16 1017.7 - 0.0
27/06:30am 16.5 13.3 9.9 65 3.5 SE 17 22 9 12 1017.3 - 0.0
27/06:00am 16.0 12.8 9.9 67 3.3 SSE 17 20 9 11 1017.0 1014.4 0.0
27/05:30am 16.5 13.3 10.1 66 3.5 SSE 17 24 9 13 1016.9 - 0.0
27/05:00am 17.0 13.4 10.4 65 3.6 SSE 20 24 11 13 1016.6 - 0.0
27/04:30am 17.5 13.5 10.6 64 3.8 SSE 22 32 12 17 1016.5 - 0.0
27/04:00am 17.5 13.8 10.1 62 4.0 SSE 20 28 11 15 1016.5 - 0.0
27/03:30am 16.8 13.3 10.2 65 3.6 S 19 26 10 14 1016.5 - 0.0
27/03:00am 15.9 13.1 8.4 61 3.9 SE 13 17 7 9 1016.5 1013.8 0.0
27/02:30am 16.5 13.0 8.7 60 4.1 SE 17 20 9 11 1016.4 - 0.0
27/02:00am 15.9 13.4 9.6 66 3.4 SE 13 17 7 9 1016.4 - 0.0
27/01:30am 15.9 13.9 10.0 68 3.2 SE 11 15 6 8 1016.4 - 0.0
27/01:00am 16.0 13.4 9.4 65 3.5 SE 13 17 7 9 1016.6 - 0.0
27/12:30am 16.0 13.6 10.1 68 3.2 SSE 13 17 7 9 1016.8 - 0.0
27/12:00am 16.2 14.8 10.9 71 2.9 SE 9 11 5 6 1017.2 1014.6 0.0
 
Date/Time
EST
Temp
°C
App
Temp
°C
Dew
Point
Rel
Hum
%
Delta-T
°C
Wind Press
QNH
hPa
Press
MSL
hPa
Rain
since 9 am
mm
Dir
 
Spd
km/h
Gust
km/h
Spd
kts
Gust
kts
26/11:30pm 16.1 14.5 11.7 75 2.4 SSE 11 13 6 7 1017.4 - 0.0
26/11:00pm 15.7 15.0 12.1 79 2.0 SE 7 11 4 6 1017.6 - 0.0
26/10:30pm 15.1 15.5 11.1 77 2.2 CALM 0 0 0 0 1017.7 - 0.0
26/10:00pm 15.7 16.1 11.3 75 2.4 CALM 0 0 0 0 1017.7 - 0.0
26/09:30pm 16.6 17.0 11.3 71 2.9 CALM 0 6 0 3 1017.8 - 0.0
26/09:00pm 16.9 16.6 11.6 71 2.9 S 4 11 2 6 1017.6 1014.9 0.0
26/08:30pm 17.5 18.3 12.4 72 2.9 CALM 0 0 0 0 1017.4 - 0.0
26/08:00pm 18.2 18.9 12.2 68 3.4 CALM 0 0 0 0 1017.2 - 0.0
26/07:30pm 19.2 20.0 12.5 65 3.8 CALM 0 0 0 0 1016.7 - 0.0
26/07:00pm 20.2 20.0 11.9 59 4.7 N 4 7 2 4 1016.4 - 0.0
26/06:30pm 22.4 22.5 11.5 50 6.2 NNE 2 7 1 4 1015.9 - 0.0
26/06:00pm 23.7 22.9 11.1 45 7.2 NE 6 9 3 5 1015.5 1012.8 0.0
26/05:30pm 24.9 23.1 10.7 40 8.1 NNE 11 17 6 9 1015.0 - 0.0
26/05:00pm 26.0 24.1 10.6 38 8.8 N 11 17 6 9 1014.5 - 0.0
26/04:30pm 26.7 24.1 10.8 37 9.2 NE 15 20 8 11 1014.3 - 0.0
26/04:00pm 27.4 25.0 10.2 34 9.8 NE 13 20 7 11 1014.0 - 0.0
26/03:30pm 28.6 26.5 8.3 28 11.3 E 9 17 5 9 1013.8 - 0.0
26/03:00pm 28.6 26.0 7.8 27 11.5 SE 11 20 6 11 1013.8 1011.1 0.0
26/02:30pm 28.8 26.9 7.4 26 11.8 SE 7 15 4 8 1013.8 - 0.0
26/02:00pm 28.7 25.7 7.9 27 11.5 SSE 13 24 7 13 1014.0 - 0.0
26/01:30pm 28.7 26.0 7.3 26 11.7 SSE 11 20 6 11 1014.1 - 0.0
26/01:00pm 28.2 25.4 6.9 26 11.6 SSE 11 22 6 12 1014.3 - 0.0
26/12:30pm 27.8 25.0 7.1 27 11.3 ESE 11 17 6 9 1014.8 - 0.0
26/12:00pm 27.7 23.8 7.0 27 11.2 S 17 24 9 13 1015.2 1012.6 0.0
26/11:30am 27.6 23.9 6.4 26 11.4 SE 15 22 8 12 1015.8 - 0.0
26/11:00am 26.6 22.1 6.1 27 10.9 ESE 19 24 10 13 1016.2 - 0.0
26/10:30am 26.1 22.1 8.1 32 9.9 SSE 19 26 10 14 1016.6 - 0.0
26/10:00am 25.6 21.5 7.7 32 9.7 SSE 19 26 10 14 1016.9 - 0.0
26/09:30am 24.6 20.8 9.0 37 8.6 SSE 19 30 10 16 1016.8 - 0.0
26/09:00am 23.8 20.5 9.4 40 8.0 SSE 17 24 9 13 1016.6 1013.9 0.0
26/08:30am 21.8 18.8 10.6 49 6.3 SSE 17 22 9 12 1016.2 - 0.0
26/08:00am 20.1 18.6 13.1 64 4.1 S 13 17 7 9 1015.9 - 0.0
26/07:30am 18.0 15.7 12.9 72 2.9 S 17 19 9 10 1015.8 - 0.0
26/07:00am 16.1 14.5 12.8 81 1.9 S 13 15 7 8 1015.7 - 0.0
26/06:30am 14.4 15.2 12.4 88 1.1 CALM 0 0 0 0 1015.4 - 0.0
26/06:00am 14.6 15.4 12.6 88 1.1 CALM 0 0 0 0 1014.9 1012.3 0.0
26/05:30am 15.3 16.3 13.1 87 1.2 CALM 0 6 0 3 1014.6 - 0.0
26/05:00am 16.3 17.6 14.0 86 1.3 CALM 0 6 0 3 1014.3 - 0.0
26/04:30am 16.7 16.9 14.7 88 1.2 SSE 7 11 4 6 1014.0 - 0.0
26/04:00am 16.8 16.0 15.0 89 1.1 S 13 17 7 9 1013.9 - 0.0
26/03:30am 17.1 16.8 15.4 90 1.0 S 11 13 6 7 1013.9 - 0.0
26/03:00am 17.1 16.8 15.4 90 1.0 S 11 15 6 8 1013.9 1011.2 0.0
26/02:30am 17.3 17.6 16.0 92 0.8 S 9 13 5 7 1013.9 - 0.0
26/02:00am 17.9 18.5 16.9 94 0.6 S 9 11 5 6 1013.9 - 0.0
26/01:30am 18.6 20.6 17.8 95 0.5 SSE 4 7 2 4 1014.0 - 0.0
26/01:00am 18.2 19.5 17.0 93 0.7 SSE 6 7 3 4 1014.4 - 0.0
26/12:30am 18.3 19.1 17.3 94 0.6 S 9 9 5 5 1014.8 - 0.0
26/12:00am 18.0 19.4 16.5 91 0.9 S 4 7 2 4 1015.2 1012.6 0.0
 
Date/Time
EST
Temp
°C
App
Temp
°C
Dew
Point
Rel
Hum
%
Delta-T
°C
Wind Press
QNH
hPa
Press
MSL
hPa
Rain
since 9 am
mm
Dir
 
Spd
km/h
Gust
km/h
Spd
kts
Gust
kts
25/11:30pm 18.3 20.4 16.3 88 1.2 CALM 0 0 0 0 1015.5 - 0.0
25/11:00pm 18.9 21.3 16.9 88 1.2 CALM 0 0 0 0 1015.6 - 0.0
25/10:30pm 19.6 22.4 17.9 90 1.1 CALM 0 0 0 0 1015.8 - 0.0
25/10:00pm 19.3 21.9 17.4 89 1.2 CALM 0 0 0 0 1015.7 - 0.0
25/09:30pm 19.2 20.5 17.2 88 1.2 SW 6 7 3 4 1015.7 - 0.0
25/09:00pm 19.5 21.3 17.5 88 1.2 WNW 4 9 2 5 1015.7 1013.0 0.0
25/08:30pm 20.0 21.8 17.4 85 1.6 NNW 4 7 2 4 1015.2 - 0.0
25/08:00pm 20.7 22.2 17.5 82 2.0 N 6 9 3 5 1014.8 - 0.0
25/07:30pm 21.0 21.9 16.6 76 2.7 W 7 9 4 5 1014.5 - 0.0
25/07:00pm 22.0 24.1 16.3 70 3.5 CALM 0 0 0 0 1014.0 - 0.0
25/06:30pm 23.5 24.9 16.3 64 4.5 NE 4 9 2 5 1013.5 - 0.0
25/06:00pm 24.3 24.6 16.0 60 5.1 NNE 9 15 5 8 1013.3 1010.6 0.0
25/05:30pm 25.3 25.0 16.4 57 5.6 NE 13 20 7 11 1012.9 - 0.0
25/05:00pm 26.5 26.6 16.4 53 6.4 NNE 11 20 6 11 1012.6 - 0.0
25/04:30pm 27.3 26.8 16.9 53 6.6 NNE 15 20 8 11 1012.1 - 0.0
25/04:00pm 27.0 26.8 16.6 53 6.6 NNE 13 19 7 10 1011.7 - 0.0
25/03:30pm 27.5 27.6 15.5 48 7.5 NE 9 15 5 8 1011.5 - 0.0
25/03:00pm 27.9 28.3 16.2 49 7.4 N 9 13 5 7 1011.3 1008.6 0.0
25/02:30pm 28.2 28.5 16.1 47 7.6 NE 9 13 5 7 1011.3 - 0.0
25/02:00pm 28.6 28.4 15.8 45 8.0 ENE 11 17 6 9 1011.6 - 0.0
25/01:30pm 27.5 28.0 16.5 51 7.0 NNE 9 15 5 8 1011.9 - 0.0
25/01:00pm 28.8 29.4 16.7 48 7.7 NNW 9 15 5 8 1012.3 - 0.0
25/12:30pm 27.7 28.0 16.9 51 6.9 N 11 17 6 9 1012.6 - 0.0
25/12:00pm 27.0 27.6 17.8 57 5.9 N 11 19 6 10 1013.1 1010.4 0.0
25/11:30am 25.5 25.8 16.9 59 5.4 N 11 22 6 12 1013.6 - 0.0
25/11:00am 25.5 26.7 17.4 61 5.2 N 7 17 4 9 1014.1 - 0.0

Other Formats:

Comma delimited format used in spreadsheet applications
http://www.bom.gov.au/fwo/IDQ60801/IDQ60801.95286.axf

JavaScript Object Notation format (JSON) in row-major order
http://www.bom.gov.au/fwo/IDQ60801/IDQ60801.95286.json